createdAt,value
2022-08-14T00:01:34.371Z,65.74
2022-08-14T00:04:34.442Z,65.70
2022-08-14T00:07:41.934Z,65.68
2022-08-14T00:10:51.342Z,65.57
2022-08-14T00:13:19.742Z,65.79
2022-08-14T00:16:00.552Z,65.84
2022-08-14T00:19:06.063Z,65.86
2022-08-14T00:21:59.186Z,65.68
2022-08-14T00:24:48.184Z,65.61
2022-08-14T00:27:18.116Z,65.66
2022-08-14T00:30:19.758Z,65.61
2022-08-14T00:33:15.070Z,65.57
2022-08-14T00:36:34.912Z,65.65
2022-08-14T00:38:34.855Z,65.54
2022-08-14T00:41:15.807Z,65.52
2022-08-14T00:44:04.945Z,65.44
2022-08-14T00:46:45.182Z,65.43
2022-08-14T00:49:55.734Z,65.30
2022-08-14T00:52:55.838Z,65.38
2022-08-14T00:55:46.699Z,65.19
2022-08-14T00:58:44.939Z,65.00
2022-08-14T01:01:23.533Z,64.91
2022-08-14T01:04:37.974Z,65.16
2022-08-14T01:08:03.680Z,65.17
2022-08-14T01:11:22.207Z,65.12
2022-08-14T01:14:05.046Z,65.13
2022-08-14T01:17:11.024Z,65.25
2022-08-14T01:20:27.562Z,65.15
2022-08-14T01:23:46.654Z,65.03
2022-08-14T01:26:23.334Z,64.95
2022-08-14T01:29:58.462Z,64.98
2022-08-14T01:32:43.644Z,64.94
2022-08-14T01:36:03.587Z,64.90
2022-08-14T01:38:37.391Z,64.80
2022-08-14T01:41:30.179Z,64.72
2022-08-14T01:44:41.266Z,64.84
2022-08-14T01:47:23.074Z,64.86
2022-08-14T01:50:33.780Z,64.63
2022-08-14T01:53:12.000Z,64.63
2022-08-14T01:55:51.054Z,64.64
2022-08-14T01:58:57.564Z,64.57
2022-08-14T02:01:58.677Z,64.57
2022-08-14T02:05:12.250Z,64.64
2022-08-14T02:08:08.789Z,64.58
2022-08-14T02:11:18.607Z,64.70
2022-08-14T02:14:14.214Z,64.69
2022-08-14T02:17:13.490Z,64.36
2022-08-14T02:20:04.310Z,64.59
2022-08-14T02:22:47.747Z,64.58
2022-08-14T02:25:19.644Z,64.33
2022-08-14T02:28:56.117Z,64.64
2022-08-14T02:31:42.149Z,64.66
2022-08-14T02:34:36.270Z,64.56
2022-08-14T02:37:18.556Z,64.57
2022-08-14T02:39:47.372Z,64.85
2022-08-14T02:42:57.987Z,64.72
2022-08-14T02:45:44.344Z,64.65
2022-08-14T02:49:04.488Z,64.88
2022-08-14T02:51:56.236Z,64.85
2022-08-14T02:54:26.871Z,64.88
2022-08-14T02:57:40.100Z,64.92
2022-08-14T03:00:26.331Z,64.95
2022-08-14T03:03:25.393Z,65.07
2022-08-14T03:05:54.722Z,64.86
2022-08-14T03:08:46.107Z,64.90
2022-08-14T03:11:34.727Z,64.89
2022-08-14T03:14:04.450Z,64.87
2022-08-14T03:16:41.713Z,64.75
2022-08-14T03:19:31.565Z,64.75
2022-08-14T03:22:20.458Z,64.98
2022-08-14T03:24:53.161Z,65.06
2022-08-14T03:27:22.513Z,64.96
2022-08-14T03:30:23.396Z,65.09
2022-08-14T03:33:13.674Z,65.09
2022-08-14T03:37:28.330Z,65.02
2022-08-14T03:39:14.561Z,65.11
2022-08-14T03:41:59.990Z,65.13
2022-08-14T03:45:18.844Z,65.13
2022-08-14T03:47:46.680Z,65.19
2022-08-14T03:50:31.657Z,65.22
2022-08-14T03:53:04.439Z,65.34
2022-08-14T03:55:58.459Z,65.32
2022-08-14T03:59:17.976Z,65.61
2022-08-14T04:02:01.714Z,65.35
2022-08-14T04:04:31.812Z,65.45
2022-08-14T04:07:50.034Z,65.51
2022-08-14T04:10:50.091Z,65.64
2022-08-14T04:13:43.041Z,65.61
2022-08-14T04:16:22.289Z,65.70
2022-08-14T04:19:04.064Z,65.69
2022-08-14T04:22:03.316Z,65.91
2022-08-14T04:24:53.223Z,65.87
2022-08-14T04:27:22.714Z,65.89
2022-08-14T04:29:56.919Z,65.85
2022-08-14T04:33:10.947Z,65.90
2022-08-14T04:35:56.460Z,65.96
2022-08-14T04:38:55.210Z,65.90
2022-08-14T04:42:12.195Z,65.86
2022-08-14T04:45:03.099Z,65.82
2022-08-14T04:48:02.771Z,65.68
2022-08-14T04:51:04.993Z,65.40
2022-08-14T04:54:14.489Z,65.42
2022-08-14T04:56:46.094Z,65.50
2022-08-14T04:59:14.672Z,65.72
2022-08-14T05:01:47.806Z,65.83
2022-08-14T05:04:39.786Z,65.93
2022-08-14T05:07:21.220Z,65.99
2022-08-14T05:10:13.306Z,66.18
2022-08-14T05:13:14.453Z,66.10
2022-08-14T05:15:39.839Z,65.99
2022-08-14T05:19:16.839Z,65.95
2022-08-14T05:22:00.170Z,65.83
2022-08-14T05:25:01.185Z,66.01
2022-08-14T05:28:12.359Z,65.96
2022-08-14T05:30:54.897Z,66.17
2022-08-14T05:34:03.936Z,66.43
2022-08-14T05:36:34.986Z,66.56
2022-08-14T05:39:38.934Z,65.75
2022-08-14T05:42:29.505Z,65.71
2022-08-14T05:45:21.565Z,65.55
2022-08-14T05:48:23.393Z,64.93
2022-08-14T05:51:07.194Z,64.24
2022-08-14T05:53:36.720Z,63.87
2022-08-14T05:56:31.589Z,63.46
2022-08-14T05:59:21.186Z,63.20
2022-08-14T06:02:16.375Z,63.10
2022-08-14T06:05:23.287Z,63.12
2022-08-14T06:08:02.098Z,63.20
2022-08-14T06:10:37.712Z,62.97
2022-08-14T06:13:06.620Z,63.08
2022-08-14T06:15:37.636Z,63.27
2022-08-14T06:18:11.441Z,63.11
2022-08-14T06:20:45.200Z,63.05
2022-08-14T06:23:35.371Z,63.14
2022-08-14T06:26:03.994Z,62.47
2022-08-14T06:28:32.552Z,62.04
2022-08-14T06:31:01.006Z,62.00
2022-08-14T06:35:11.123Z,61.89
2022-08-14T06:36:49.015Z,61.56
2022-08-14T06:39:17.606Z,61.48
2022-08-14T06:42:06.616Z,61.51
2022-08-14T06:44:35.353Z,61.63
2022-08-14T06:47:05.595Z,61.58
2022-08-14T06:49:43.388Z,61.90
2022-08-14T06:52:17.155Z,61.76
2022-08-14T06:54:46.271Z,61.81
2022-08-14T06:57:14.627Z,61.64
2022-08-14T06:59:43.185Z,62.08
2022-08-14T07:02:29.813Z,62.36
2022-08-14T07:05:16.900Z,62.89
2022-08-14T07:07:49.901Z,62.40
2022-08-14T07:10:21.663Z,62.78
2022-08-14T07:13:02.140Z,63.07
2022-08-14T07:15:34.011Z,62.31
2022-08-14T07:18:04.909Z,62.37
2022-08-14T07:20:37.916Z,61.45
2022-08-14T07:23:10.921Z,60.95
2022-08-14T07:25:42.075Z,60.88
2022-08-14T07:28:20.576Z,60.75
2022-08-14T07:30:51.913Z,60.63
2022-08-14T07:33:24.872Z,60.60
2022-08-14T07:36:00.204Z,60.30
2022-08-14T07:38:34.067Z,60.26
2022-08-14T07:41:11.966Z,60.73
2022-08-14T07:43:47.646Z,61.12
2022-08-14T07:46:29.095Z,60.63
2022-08-14T07:48:59.600Z,59.88
2022-08-14T07:51:36.552Z,59.82
2022-08-14T07:54:11.167Z,58.76
2022-08-14T07:56:47.627Z,57.56
2022-08-14T07:59:21.271Z,57.03
2022-08-14T08:02:17.420Z,56.47
2022-08-14T08:04:50.345Z,56.40
2022-08-14T08:07:21.555Z,56.31
2022-08-14T08:09:55.521Z,56.14
2022-08-14T08:12:29.514Z,55.70
2022-08-14T08:15:03.102Z,55.62
2022-08-14T08:17:38.961Z,55.66
2022-08-14T08:20:19.927Z,55.58
2022-08-14T08:22:55.973Z,55.61
2022-08-14T08:25:25.377Z,55.78
2022-08-14T08:28:03.491Z,55.93
2022-08-14T08:30:49.536Z,55.39
2022-08-14T08:33:19.789Z,55.31
2022-08-14T08:35:50.647Z,55.43
2022-08-14T08:39:15.556Z,55.96
2022-08-14T08:41:12.181Z,55.78
2022-08-14T08:43:46.703Z,55.59
2022-08-14T08:46:21.621Z,55.41
2022-08-14T08:51:30.867Z,55.19
2022-08-14T08:54:04.528Z,55.23
2022-08-14T08:56:39.999Z,55.65
2022-08-14T08:59:27.154Z,56.01
2022-08-14T09:02:01.799Z,56.28
2022-08-14T09:04:38.044Z,56.40
2022-08-14T09:07:14.447Z,56.34
2022-08-14T09:09:54.369Z,56.23
2022-08-14T09:12:32.667Z,56.41
2022-08-14T09:15:03.736Z,56.26
2022-08-14T09:17:42.206Z,56.01
2022-08-14T09:20:12.571Z,56.05
2022-08-14T09:22:47.461Z,56.11
2022-08-14T09:25:19.879Z,56.43
2022-08-14T09:27:48.657Z,56.65
2022-08-14T09:30:32.269Z,56.83
2022-08-14T09:33:22.899Z,57.11
2022-08-14T09:36:14.271Z,56.98
2022-08-14T09:38:49.853Z,57.25
2022-08-14T09:42:20.246Z,57.94
2022-08-14T09:44:45.880Z,57.93
2022-08-14T09:47:14.891Z,58.04
2022-08-14T09:49:43.510Z,58.19
2022-08-14T09:52:32.589Z,58.15
2022-08-14T09:55:04.220Z,58.28
2022-08-14T09:57:32.638Z,58.42
2022-08-14T10:00:28.768Z,58.73
2022-08-14T10:03:02.481Z,58.83
2022-08-14T10:05:39.133Z,58.72
2022-08-14T10:08:25.384Z,59.04
2022-08-14T10:10:56.995Z,59.36
2022-08-14T10:13:43.325Z,59.48
2022-08-14T10:16:25.793Z,59.59
2022-08-14T10:19:11.449Z,59.74
2022-08-14T10:23:13.738Z,59.31
2022-08-14T10:24:37.328Z,59.16
2022-08-14T10:27:16.214Z,59.16
2022-08-14T10:29:48.915Z,59.27
2022-08-14T10:32:29.285Z,59.46
2022-08-14T10:35:09.287Z,59.43
2022-08-14T10:37:47.631Z,59.48
2022-08-14T10:40:43.935Z,59.43
2022-08-14T10:43:23.870Z,59.20
2022-08-14T10:46:03.611Z,58.72
2022-08-14T10:48:59.601Z,58.84
2022-08-14T10:51:33.908Z,58.67
2022-08-14T10:54:17.177Z,58.40
2022-08-14T10:57:10.258Z,58.45
2022-08-14T10:59:45.411Z,58.55
2022-08-14T11:02:45.005Z,58.20
2022-08-14T11:05:14.812Z,57.87
2022-08-14T11:07:56.491Z,57.45
2022-08-14T11:10:38.133Z,57.63
2022-08-14T11:13:08.067Z,57.66
2022-08-14T11:15:36.838Z,57.52
2022-08-14T11:18:06.024Z,57.37
2022-08-14T11:20:41.488Z,57.62
2022-08-14T11:23:12.643Z,57.14
2022-08-14T11:25:53.469Z,57.10
2022-08-14T11:28:47.356Z,57.43
2022-08-14T11:31:13.976Z,57.50
2022-08-14T11:33:42.655Z,57.46
2022-08-14T11:36:18.306Z,57.49
2022-08-14T11:38:47.405Z,57.21
2022-08-14T11:41:17.231Z,57.32
2022-08-14T11:43:57.973Z,57.13
2022-08-14T11:46:37.544Z,57.08
2022-08-14T11:49:07.594Z,57.07
2022-08-14T11:51:53.019Z,57.03
2022-08-14T11:54:33.532Z,56.82
2022-08-14T11:57:04.774Z,57.01
2022-08-14T11:59:33.838Z,57.11
2022-08-14T12:03:00.601Z,57.04
2022-08-14T12:05:00.206Z,57.12
2022-08-14T12:07:28.847Z,57.30
2022-08-14T12:10:01.222Z,57.16
2022-08-14T12:12:54.291Z,57.50
2022-08-14T12:15:32.762Z,57.55
2022-08-14T12:18:02.095Z,57.66
2022-08-14T12:20:36.123Z,57.76
2022-08-14T12:23:06.110Z,57.91
2022-08-14T12:25:35.335Z,57.60
2022-08-14T12:28:27.391Z,57.44
2022-08-14T12:30:59.028Z,57.41
2022-08-14T12:33:33.221Z,57.28
2022-08-14T12:36:07.446Z,57.27
2022-08-14T12:38:38.502Z,57.29
2022-08-14T12:41:20.631Z,57.40
2022-08-14T12:43:52.987Z,57.13
2022-08-14T12:46:28.508Z,57.24
2022-08-14T12:48:59.842Z,57.34
2022-08-14T12:51:30.861Z,57.36
2022-08-14T12:54:00.620Z,57.10
2022-08-14T12:56:34.173Z,56.87
2022-08-14T12:59:07.163Z,56.73
2022-08-14T13:01:59.173Z,56.83
2022-08-14T13:04:26.617Z,56.64
2022-08-14T13:06:55.630Z,56.82
2022-08-14T13:09:37.836Z,56.76
2022-08-14T13:12:32.350Z,56.61
2022-08-14T13:14:59.204Z,56.47
2022-08-14T13:17:28.717Z,56.47
2022-08-14T13:20:10.497Z,56.24
2022-08-14T13:22:54.358Z,56.33
2022-08-14T13:25:26.994Z,56.48
2022-08-14T13:27:57.303Z,56.47
2022-08-14T13:30:26.956Z,56.33
2022-08-14T13:32:57.926Z,56.45
2022-08-14T13:35:27.112Z,56.09
2022-08-14T13:37:55.860Z,56.28
2022-08-14T13:40:26.529Z,55.94
2022-08-14T13:42:57.561Z,56.17
2022-08-14T13:45:34.188Z,56.14
2022-08-14T13:48:19.139Z,55.86
2022-08-14T13:51:07.888Z,55.99
2022-08-14T13:54:07.254Z,56.01
2022-08-14T13:56:36.208Z,56.11
2022-08-14T13:59:06.377Z,56.23
2022-08-14T14:01:43.604Z,56.45
2022-08-14T14:04:19.104Z,56.53
2022-08-14T14:06:51.450Z,56.51
2022-08-14T14:09:32.654Z,56.22
2022-08-14T14:12:08.110Z,56.16
2022-08-14T14:14:59.254Z,56.23
2022-08-14T14:17:35.981Z,56.09
2022-08-14T14:20:10.828Z,56.23
2022-08-14T14:23:02.225Z,56.12
2022-08-14T14:25:46.330Z,56.33
2022-08-14T14:28:25.606Z,56.16
2022-08-14T14:30:57.512Z,56.20
2022-08-14T14:33:49.900Z,56.06
2022-08-14T14:36:25.959Z,56.05
2022-08-14T14:38:56.694Z,55.90
2022-08-14T14:41:37.619Z,55.85
2022-08-14T14:44:15.609Z,56.03
2022-08-14T14:46:50.103Z,55.92
2022-08-14T14:49:21.918Z,55.97
2022-08-14T14:51:52.565Z,55.98
2022-08-14T14:54:30.257Z,56.16
2022-08-14T14:57:02.304Z,56.20
2022-08-14T14:59:33.433Z,56.02
2022-08-14T15:02:07.753Z,56.16
2022-08-14T15:04:38.895Z,56.05
2022-08-14T15:07:12.572Z,56.47
2022-08-14T15:09:42.092Z,56.18
2022-08-14T15:12:34.374Z,56.23
2022-08-14T15:15:08.527Z,56.12
2022-08-14T15:17:41.473Z,56.07
2022-08-14T15:20:17.339Z,56.22
2022-08-14T15:23:00.590Z,56.26
2022-08-14T15:25:31.152Z,56.54
2022-08-14T15:28:00.970Z,56.36
2022-08-14T15:30:32.431Z,56.36
2022-08-14T15:33:01.240Z,56.13
2022-08-14T15:35:30.842Z,56.31
2022-08-14T15:38:07.325Z,56.38
2022-08-14T15:40:37.530Z,56.27
2022-08-14T15:43:12.983Z,56.23
2022-08-14T15:45:42.064Z,56.15
2022-08-14T15:48:22.286Z,56.38
2022-08-14T15:50:51.673Z,56.50
2022-08-14T15:53:22.156Z,56.57
2022-08-14T15:55:52.948Z,56.47
2022-08-14T15:58:21.887Z,56.34
2022-08-14T16:01:08.826Z,56.59
2022-08-14T16:03:42.298Z,56.50
2022-08-14T16:06:17.753Z,56.65
2022-08-14T16:08:50.306Z,56.66
2022-08-14T16:11:28.839Z,56.69
2022-08-14T16:14:01.775Z,56.82
2022-08-14T16:16:49.464Z,56.67
2022-08-14T16:19:20.680Z,56.63
2022-08-14T16:22:01.198Z,56.98
2022-08-14T16:24:59.842Z,56.94
2022-08-14T16:27:37.061Z,56.92
2022-08-14T16:30:20.750Z,57.14
2022-08-14T16:32:58.582Z,56.66
2022-08-14T16:35:42.291Z,56.89
2022-08-14T16:38:19.374Z,57.11
2022-08-14T16:41:26.612Z,57.03
2022-08-14T16:43:58.852Z,57.00
2022-08-14T16:46:31.411Z,56.87
2022-08-14T16:49:01.977Z,57.09
2022-08-14T16:51:36.310Z,57.01
2022-08-14T16:54:34.473Z,56.98
2022-08-14T16:57:12.196Z,57.02
2022-08-14T16:59:51.896Z,57.14
2022-08-14T17:02:34.123Z,57.04
2022-08-14T17:05:17.656Z,57.55
2022-08-14T17:08:41.721Z,57.40
2022-08-14T17:11:04.840Z,57.93
2022-08-14T17:13:59.427Z,57.84
2022-08-14T17:16:37.630Z,58.12
2022-08-14T17:19:14.089Z,58.32
2022-08-14T17:21:47.141Z,58.32
2022-08-14T17:24:57.756Z,58.48
2022-08-14T17:27:08.071Z,58.79
2022-08-14T17:29:44.314Z,58.85
2022-08-14T17:32:29.696Z,58.83
2022-08-14T17:35:12.212Z,59.03
2022-08-14T17:37:47.888Z,58.86
2022-08-14T17:40:30.717Z,58.85
2022-08-14T17:43:02.432Z,58.94
2022-08-14T17:45:46.818Z,59.04
2022-08-14T17:49:14.541Z,59.32
2022-08-14T17:51:23.671Z,59.30
2022-08-14T17:54:02.509Z,59.37
2022-08-14T17:56:33.496Z,59.61
2022-08-14T17:59:06.934Z,59.74
2022-08-14T18:01:40.143Z,59.95
2022-08-14T18:04:27.884Z,60.14
2022-08-14T18:07:08.817Z,60.08
2022-08-14T18:09:57.405Z,60.31
2022-08-14T18:12:37.227Z,60.32
2022-08-14T18:15:14.826Z,60.49
2022-08-14T18:17:50.656Z,60.69
2022-08-14T18:21:39.921Z,60.62
2022-08-14T18:23:13.820Z,60.81
2022-08-14T18:25:50.224Z,60.81
2022-08-14T18:28:48.213Z,60.40
2022-08-14T18:31:42.157Z,59.66
2022-08-14T18:34:31.087Z,58.49
2022-08-14T18:37:09.635Z,57.98
2022-08-14T18:40:01.864Z,57.53
2022-08-14T18:42:44.587Z,57.10
2022-08-14T18:45:19.088Z,56.76
2022-08-14T18:48:28.677Z,56.42
2022-08-14T18:51:26.243Z,56.70
2022-08-14T18:54:29.993Z,57.09
2022-08-14T18:57:03.573Z,57.62
2022-08-14T18:59:36.486Z,58.09
2022-08-14T19:02:42.800Z,58.67
2022-08-14T19:05:12.847Z,59.35
2022-08-14T19:07:43.177Z,59.61
2022-08-14T19:10:31.915Z,59.88
2022-08-14T19:13:11.754Z,60.35
2022-08-14T19:15:42.772Z,60.74
2022-08-14T19:18:26.301Z,61.14
2022-08-14T19:20:59.025Z,61.44
2022-08-14T19:23:42.924Z,61.69
2022-08-14T19:26:36.957Z,62.15
2022-08-14T19:29:23.637Z,62.26
2022-08-14T19:31:55.265Z,62.44
2022-08-14T19:34:40.194Z,62.52
2022-08-14T19:37:10.334Z,62.76
2022-08-14T19:39:53.757Z,63.04
2022-08-14T19:42:28.119Z,63.42
2022-08-14T19:44:59.124Z,63.77
2022-08-14T19:47:41.130Z,64.07
2022-08-14T19:50:38.040Z,64.41
2022-08-14T19:53:11.271Z,64.81
2022-08-14T19:55:45.628Z,64.89
2022-08-14T19:58:14.418Z,65.11
2022-08-14T20:00:52.078Z,65.09
2022-08-14T20:03:24.050Z,65.28
2022-08-14T20:06:02.583Z,65.31
2022-08-14T20:11:00.895Z,65.42
2022-08-14T20:12:00.875Z,65.53
2022-08-14T20:14:20.805Z,65.86
2022-08-14T20:16:54.332Z,65.93
2022-08-14T20:19:28.785Z,66.01
2022-08-14T20:22:04.356Z,66.18
2022-08-14T20:24:50.138Z,66.18
2022-08-14T20:27:33.523Z,66.37
2022-08-14T20:33:04.216Z,66.67
2022-08-14T20:35:42.190Z,66.84
2022-08-14T20:38:29.878Z,66.95
2022-08-14T20:41:05.571Z,67.19
2022-08-14T20:43:55.672Z,67.28
2022-08-14T20:46:30.011Z,67.40
2022-08-14T20:49:00.805Z,67.50
2022-08-14T20:51:47.620Z,67.66
2022-08-14T20:54:36.335Z,67.59
2022-08-14T20:57:10.894Z,67.59
2022-08-14T20:59:43.437Z,67.83
2022-08-14T21:02:34.631Z,67.78
2022-08-14T21:05:18.024Z,67.77
2022-08-14T21:07:54.975Z,67.87
2022-08-14T21:10:35.638Z,67.88
2022-08-14T21:14:08.755Z,67.89
2022-08-14T21:16:33.088Z,67.88
2022-08-14T21:18:58.215Z,68.00
2022-08-14T21:21:41.714Z,67.98
2022-08-14T21:24:39.771Z,68.08
2022-08-14T21:27:19.839Z,68.00
2022-08-14T21:29:55.451Z,67.92
2022-08-14T21:32:36.278Z,68.04
2022-08-14T21:35:16.509Z,68.21
2022-08-14T21:37:47.896Z,68.40
2022-08-14T21:40:40.237Z,68.35
2022-08-14T21:43:17.432Z,68.55
2022-08-14T21:45:53.109Z,68.69
2022-08-14T21:48:25.337Z,68.66
2022-08-14T21:51:01.766Z,68.78
2022-08-14T21:53:57.971Z,68.97
2022-08-14T21:56:39.037Z,69.02
2022-08-14T21:59:17.914Z,69.25
2022-08-14T22:02:01.218Z,69.12
2022-08-14T22:04:34.847Z,69.38
2022-08-14T22:07:12.827Z,69.45
2022-08-14T22:09:55.093Z,69.40
2022-08-14T22:12:47.282Z,69.38
2022-08-14T22:15:16.884Z,69.38
2022-08-14T22:17:52.509Z,69.35
2022-08-14T22:20:27.455Z,69.36
2022-08-14T22:22:56.596Z,69.16
2022-08-14T22:25:33.266Z,69.35
2022-08-14T22:28:05.121Z,69.39
2022-08-14T22:30:35.218Z,69.20
2022-08-14T22:33:05.344Z,69.19
2022-08-14T22:35:34.564Z,69.08
2022-08-14T22:38:36.027Z,69.27
2022-08-14T22:41:21.020Z,69.22
2022-08-14T22:43:40.877Z,69.34
2022-08-14T22:46:14.943Z,69.45
2022-08-14T22:48:50.464Z,69.37
2022-08-14T22:51:22.526Z,69.45
2022-08-14T22:53:53.479Z,69.40
2022-08-14T22:56:29.289Z,69.55
2022-08-14T22:59:01.205Z,69.47
2022-08-14T23:01:57.154Z,69.67
2022-08-14T23:04:35.192Z,69.75
2022-08-14T23:07:21.982Z,69.85
2022-08-14T23:09:56.654Z,69.83
2022-08-14T23:12:29.761Z,69.89
2022-08-14T23:14:59.907Z,69.87
2022-08-14T23:17:39.046Z,69.85
2022-08-14T23:20:18.833Z,70.08
2022-08-14T23:22:51.868Z,70.01
2022-08-14T23:25:56.882Z,70.07
2022-08-14T23:28:33.659Z,70.30
2022-08-14T23:31:08.095Z,70.20
2022-08-14T23:33:46.213Z,70.29
2022-08-14T23:36:32.105Z,70.36
2022-08-14T23:39:07.248Z,70.25
2022-08-14T23:41:46.169Z,70.38
2022-08-14T23:44:22.846Z,70.46
2022-08-14T23:46:57.125Z,70.62
2022-08-14T23:49:56.700Z,70.74
2022-08-14T23:52:56.086Z,70.68
2022-08-14T23:55:11.725Z,70.58
2022-08-14T23:57:43.491Z,70.63
